VTBS/BKK METAR and TAF weather

Enter ICAO airport designator
Station Type Date Time Source
VTBS METAR 2022/10/01 07:30 UTC NOAA

VTBS 010730Z 19015KT 9999 FEW020 SCT035 31/23 Q1005 NOSIG


Station Type Date Time Source
VTBS Decoded METAR 2022/10/01 07:30 UTC NOAA

Chon Buri, Thailand (VTBS) 13-22N 100-59E 2M
Oct 01, 2022 - 03:30 AM EDT / 2022.10.01 0730 UTC
Wind: from the S (190 degrees) at 17 MPH (15 KT):0
Visibility: greater than 7 mile(s):0
Sky conditions: partly cloudy
Temperature: 87 F (31 C)
Heat index: 93.9 F (34.4 C):1
Dew Point: 73 F (23 C)
Relative Humidity: 62%
Pressure (altimeter): 29.68 in. Hg (1005 hPa)
ob: VTBS 010730Z 19015KT 9999 FEW020 SCT035 31/23 Q1005 NOSIG
cycle: 7

Station Type Date Time Source
VTBS TAF 2022/10/01 06:00 UTC NOAA

TAF VTBS 010500Z 0106/0212 20008KT 9999 SCT020
TEMPO 0106/0112 VRB15KT 3000 TSRA FEW018CB SCT030 BKN100
BECMG 0114/0116 14005KT
BECMG 0201/0203 20008KT
TEMPO 0206/0212 VRB15KT 3000 TSRA FEW018CB SCT030 BKN100

Example: see airport list